首页
METAR-TAF:

METAR-TAF

机场 :

開雲-羅尚博國際機場

開雲, 法屬圭亞那

纬度: 04-50N, 经度: 052-22W, 海拔: 105米

当前天气观测

该预报发布于43分钟前的00:00 UTC
风速2节,风向多变
温度 26°C
湿度 94%
气压 1013 hPa
能见度10公里或以上

METAR: SOCA 310000Z AUTO VRB02KT 9999 ///TCU 26/25 Q1013 BECMG FEW023 SCT035

时间: 21:43 (00:43 UTC)

预报

该预报发布于1小时和43分钟前的23:00 UTC
预报有效从31日的 00点(UTC)到 31日的 24点(UTC)
风速2节,风向多变
能见度10公里或以上
少量云层高于2300英尺
散云层高于3500英尺
短暂存在
从 31日的 03点(UTC)到 31日的 12点(UTC)
能見度: 2000
散云层高于1200英尺, 塔状积云.
多云层高于1500英尺
阵雨
从 31日的 1200点(UTC)
风速10节,风向东转东北
能见度10公里或以上
多云层高于1800英尺
多云层高于3000英尺
短暂存在
从 31日的 12点(UTC)到 31日的 24点(UTC)
能見度: 2000
散云层高于800英尺
散云层高于1300英尺, 积雨云.
阵雨

TAF: SOCA 302300Z 3100/3124 VRB02KT 9999 FEW023 SCT035 TEMPO 3103/3112 2000 SHRA SCT012TCU BKN015 FM311200 06010KT 9999 BKN018 BKN030 TEMPO 3112/3124 2000 SHRA SCT008 SCT013CB

超过4000个机场的气象观测和天气预报(METAR&TAF报告)。

可查询的气象台以黄色和红色小点在地图上表示。

将鼠标移到小点上方,可查看气象台名称。

然后点击查看天气观测和预报。

如需切换地图:点击带黑十字的绿色按钮放大地图;点击带横线的绿色按钮缩小地图;或者点击绿色箭头查看邻近地区的地图。


METAR-TAF: